Chris Murray 40x1:00/0:20r row

10,956

Meters

40:00.0

Time

1:49.5

Pace

793

Calories

Rest Distance846
Rest Time13:20.0
Overall Distance11,802
Overall Time53:20.0
Average Watts266
Calories Per Hour1189
Stroke Rate30
Stroke Count1211
Drag Factor128

November 09, 2023 19:18:00

Workout
RowErg

Workout Type
Interval:Time

Weight Class
Hwt

Verified
Yes

Entered
ErgData Android

Intervals

Time Meters Pace Watts Cal/Hr S/M
40:00.0 10,956 1:49.5 266 1189 30
1:00.0 291 1:43.0 319 1380 29
1:00.0 297 1:41.0 340 1440 34
1:00.0 269 1:51.5 252 1140 28
1:00.0 279 1:47.5 282 1260 33
1:00.0 270 1:51.1 255 1140 29
1:00.0 288 1:44.1 310 1320 32
1:00.0 242 2:03.9 184 900 26
1:00.0 283 1:46.0 294 1260 33
1:00.0 266 1:52.7 244 1080 28
1:00.0 283 1:46.0 294 1260 32
1:00.0 253 1:58.5 210 1020 27
1:00.0 277 1:48.3 276 1200 32
1:00.0 256 1:57.1 217 1020 28
1:00.0 271 1:50.7 258 1140 32
1:00.0 259 1:55.8 225 1020 28
1:00.0 278 1:47.9 279 1200 31
1:00.0 257 1:56.7 220 1020 27
1:00.0 274 1:49.4 267 1200 31
1:00.0 277 1:48.3 276 1200 27
1:00.0 275 1:49.0 270 1200 32
1:00.0 257 1:56.7 220 1020 27
1:00.0 273 1:49.8 264 1200 32
1:00.0 273 1:49.8 264 1200 28
1:00.0 279 1:47.5 282 1260 33
1:00.0 275 1:49.0 270 1200 26
1:00.0 277 1:48.3 276 1200 32
1:00.0 270 1:51.1 255 1140 25
1:00.0 274 1:49.4 267 1200 33
1:00.0 289 1:43.8 313 1320 30
1:00.0 286 1:44.8 303 1320 35
1:00.0 264 1:53.6 239 1080 28
1:00.0 269 1:51.5 252 1140 34
1:00.0 272 1:50.2 261 1140 26
1:00.0 274 1:49.4 267 1200 34
1:00.0 273 1:49.8 264 1200 28
1:00.0 273 1:49.8 264 1200 33
1:00.0 288 1:44.1 310 1320 27
1:00.0 280 1:47.1 285 1260 35
1:00.0 280 1:47.1 285 1260 29
1:00.0 284 1:45.6 297 1320 37
r846

Click on an interval to see the workout graph.

Click and drag on the graph to zoom in on a section.

Workout Graph

Loading data.